Time;durP1;ratioP1;P1;durP2;ratioP2;P2;SDS_P1;SDS_P2;PMS_P1;PMS_P2;Temp;Humidity;BMP_temperature;BMP_pressure;BME280_temperature;BME280_humidity;BME280_pressure;Samples;Min_cycle;Max_cycle;Signal;HPM_P1;HPM_P2
2022/05/03 00:01:27;;;;;;;3.13;2.93;;;6.40;99.90;6.80;96674.00;;;;5108445;28;20199;-73
2022/05/03 00:04:07;;;;;;;3.40;3.10;;;6.40;99.90;6.80;96680.00;;;;5104132;28;20739;-73
2022/05/03 00:06:49;;;;;;;3.90;3.30;;;6.30;99.90;6.80;96677.00;;;;5109052;28;20226;-73
2022/05/03 00:09:27;;;;;;;4.60;4.20;;;6.30;99.90;7.00;96680.00;;;;5103498;28;20222;-73
2022/05/03 00:12:03;;;;;;;3.17;2.87;;;6.40;99.90;7.10;96672.00;;;;5107898;28;20190;-73
2022/05/03 00:14:39;;;;;;;3.13;2.90;;;6.40;99.90;7.00;96667.00;;;;5108397;28;20190;-73
2022/05/03 00:17:09;;;;;;;4.37;2.87;;;6.40;99.90;6.80;96669.00;;;;5111131;28;20202;-73
2022/05/03 00:19:38;;;;;;;3.50;3.20;;;6.40;99.90;6.60;96660.00;;;;5111743;28;20220;-73
2022/05/03 00:22:07;;;;;;;3.40;3.10;;;6.30;99.90;6.30;96653.00;;;;5113101;28;20278;-72
2022/05/03 00:24:36;;;;;;;2.73;2.53;;;6.20;99.90;6.60;96659.00;;;;5113477;28;20233;-73
2022/05/03 00:27:05;;;;;;;3.73;3.17;;;6.20;99.90;6.50;96662.00;;;;5112617;28;20201;-73
2022/05/03 00:29:36;;;;;;;3.20;3.00;;;6.20;99.90;6.50;96665.00;;;;5113002;28;20199;-73
2022/05/03 00:32:06;;;;;;;3.50;3.20;;;6.20;99.90;6.50;96656.00;;;;5113054;28;20247;-73
2022/05/03 00:34:36;;;;;;;3.10;2.83;;;6.20;99.90;6.70;96664.00;;;;5113059;28;20187;-73
2022/05/03 00:37:05;;;;;;;5.30;3.60;;;6.20;99.90;6.50;96661.00;;;;5111522;28;20300;-73
2022/05/03 00:39:33;;;;;;;4.53;3.17;;;6.20;99.90;6.60;96657.00;;;;5112255;28;20182;-73
2022/05/03 00:42:07;;;;;;;5.33;3.70;;;6.20;99.90;6.70;96656.00;;;;5112686;28;20186;-72
2022/05/03 00:44:58;;;;;;;3.57;3.27;;;6.20;99.90;6.70;96664.00;;;;5112798;28;20218;-73
2022/05/03 00:47:40;;;;;;;3.77;3.47;;;6.20;99.90;6.80;96658.00;;;;5112022;28;20225;-72
2022/05/03 00:50:11;;;;;;;3.93;3.17;;;6.20;99.90;6.60;96644.00;;;;5112902;28;20202;-73
2022/05/03 00:52:46;;;;;;;3.97;3.67;;;6.20;99.90;6.50;96648.00;;;;5112780;28;20262;-72
2022/05/03 00:56:10;;;;;;;3.10;2.80;;;6.20;99.90;6.40;96648.00;;;;5112297;28;20198;-72
2022/05/03 00:58:59;;;;;;;4.50;3.43;;;6.10;99.90;6.60;96650.00;;;;5087346;28;20237;-72
2022/05/03 01:01:40;;;;;;;4.17;3.50;;;6.10;99.90;6.40;96645.00;;;;5112192;28;20274;-73
2022/05/03 01:04:20;;;;;;;3.53;3.23;;;6.10;99.90;6.30;96649.00;;;;5112313;28;20221;-72
2022/05/03 01:06:57;;;;;;;4.80;3.60;;;6.10;99.90;6.40;96642.00;;;;5112193;28;20252;-72
2022/05/03 01:09:34;;;;;;;4.03;3.63;;;6.10;99.90;6.60;96641.00;;;;5106766;28;20198;-72
2022/05/03 01:12:22;;;;;;;3.67;3.33;;;6.10;99.90;6.50;96649.00;;;;5110191;28;20243;-72
2022/05/03 01:15:09;;;;;;;4.33;3.30;;;6.00;99.90;6.50;96642.00;;;;5112466;28;20194;-73
2022/05/03 01:17:58;;;;;;;4.20;3.80;;;6.10;99.90;6.40;96640.00;;;;5111486;28;20248;-73
2022/05/03 01:20:36;;;;;;;4.03;3.63;;;6.00;99.90;6.60;96646.00;;;;5105688;28;20210;-73
2022/05/03 01:23:59;;;;;;;4.50;3.30;;;6.00;99.90;6.50;96646.00;;;;5111072;28;20198;-73
2022/05/03 01:27:20;;;;;;;4.40;4.00;;;6.00;99.90;6.50;96643.00;;;;5091798;28;20218;-73
2022/05/03 01:29:51;;;;;;;4.10;3.70;;;6.00;99.90;6.40;96651.00;;;;5005483;28;20293;-73
2022/05/03 01:32:21;;;;;;;3.80;3.50;;;6.00;99.90;6.20;96645.00;;;;5093310;28;20217;-73
2022/05/03 01:34:53;;;;;;;4.13;3.73;;;6.00;99.90;6.40;96641.00;;;;5111272;28;20211;-73
2022/05/03 01:37:50;;;;;;;3.63;3.33;;;5.90;99.90;6.50;96644.00;;;;5111129;28;20215;-72
2022/05/03 01:40:33;;;;;;;4.23;3.43;;;6.00;99.90;6.40;96632.00;;;;5090409;28;20284;-73
2022/05/03 01:43:14;;;;;;;4.83;3.47;;;6.00;99.90;6.40;96639.00;;;;5111888;28;20190;-73
2022/05/03 01:46:03;;;;;;;4.50;4.10;;;6.00;99.90;6.40;96642.00;;;;5110953;28;20198;-72
2022/05/03 01:51:50;;;;;;;4.67;4.17;;;6.00;99.90;6.50;96644.00;;;;5104568;28;20194;-72
2022/05/03 01:54:51;;;;;;;4.03;3.73;;;6.00;99.90;6.30;96641.00;;;;5110458;28;20207;-72
2022/05/03 01:57:29;;;;;;;4.43;4.03;;;6.00;99.90;6.30;96642.00;;;;5109802;28;20226;-73
2022/05/03 02:00:06;;;;;;;4.03;3.60;;;6.00;99.90;6.40;96650.00;;;;5111130;28;20203;-72
2022/05/03 02:02:55;;;;;;;4.13;3.73;;;6.00;99.90;6.30;96632.00;;;;5112439;22;20244;-67
2022/05/03 02:05:54;;;;;;;4.93;4.17;;;6.00;99.90;6.40;96645.00;;;;5080800;28;20195;-67
2022/05/03 02:08:26;;;;;;;5.30;4.07;;;6.00;99.90;6.50;96641.00;;;;5088152;28;20205;-68
2022/05/03 02:11:28;;;;;;;4.97;4.47;;;6.00;99.90;6.60;96640.00;;;;5085033;28;20196;-68
2022/05/03 02:17:04;;;;;;;4.63;3.80;;;6.00;99.90;6.40;96643.00;;;;5058603;28;20195;-67
2022/05/03 02:20:05;;;;;;;5.00;3.77;;;6.00;99.90;6.40;96647.00;;;;5068135;28;20265;-67
2022/05/03 02:23:06;;;;;;;5.47;4.30;;;5.90;99.90;6.40;96641.00;;;;5070180;28;20216;-67
2022/05/03 02:25:53;;;;;;;4.27;3.87;;;5.90;99.90;6.40;96645.00;;;;5070735;28;20263;-67
2022/05/03 02:28:34;;;;;;;3.70;3.40;;;6.50;99.90;6.40;96645.00;;;;5065058;28;20294;-67
2022/05/03 02:31:06;;;;;;;4.43;4.00;;;5.90;99.90;5.90;96637.00;;;;5063300;28;20199;-68
2022/05/03 02:33:44;;;;;;;5.17;4.37;;;5.80;99.90;6.10;96641.00;;;;5061849;28;20204;-67
2022/05/03 02:36:16;;;;;;;5.07;4.20;;;5.80;99.90;6.20;96645.00;;;;5069170;28;20318;-67
2022/05/03 02:38:55;;;;;;;5.73;4.47;;;5.80;99.90;6.30;96640.00;;;;5068977;28;20196;-67
2022/05/03 02:41:26;;;;;;;3.90;3.47;;;5.80;99.90;6.30;96641.00;;;;5068804;28;20219;-67
2022/05/03 02:43:58;;;;;;;4.83;4.40;;;5.80;99.90;6.10;96635.00;;;;5068588;28;20188;-68
2022/05/03 02:46:55;;;;;;;5.50;4.33;;;5.80;99.90;6.10;96651.00;;;;5068528;28;20199;-67
2022/05/03 02:49:40;;;;;;;4.47;3.77;;;5.80;99.90;6.20;96654.00;;;;5061847;28;20208;-67
2022/05/03 02:52:29;;;;;;;4.53;3.97;;;5.80;99.90;6.40;96645.00;;;;5068981;28;20228;-67
2022/05/03 02:55:09;;;;;;;4.93;4.53;;;5.90;99.90;6.40;96652.00;;;;5069351;28;20227;-67
2022/05/03 02:57:48;;;;;;;4.97;4.43;;;5.80;99.90;6.20;96646.00;;;;5059826;28;20188;-67
2022/05/03 03:03:45;;;;;;;6.30;4.47;;;5.80;99.90;6.00;96638.00;;;;5069524;28;20265;-67
2022/05/03 03:06:21;;;;;;;4.77;3.43;;;5.70;99.90;6.10;96642.00;;;;5069267;28;20192;-66
2022/05/03 03:08:55;;;;;;;8.60;3.90;;;5.70;99.90;5.70;96647.00;;;;5066203;28;20246;-67
2022/05/03 03:11:32;;;;;;;5.10;4.60;;;5.70;99.90;5.90;96657.00;;;;5069369;28;20247;-66
2022/05/03 03:14:11;;;;;;;5.53;4.23;;;5.60;99.90;6.10;96647.00;;;;5069325;28;20198;-67
2022/05/03 03:16:47;;;;;;;4.73;4.30;;;5.60;99.90;6.20;96643.00;;;;5068800;28;20191;-69
2022/05/03 03:19:47;;;;;;;6.67;4.23;;;5.70;99.90;6.40;96644.00;;;;5058153;28;20207;-67
2022/05/03 03:22:17;;;;;;;5.50;5.00;;;5.70;99.90;6.50;96640.00;;;;5057257;28;20232;-67
2022/05/03 03:24:49;;;;;;;5.90;5.30;;;5.80;99.90;6.50;96653.00;;;;5069791;28;20203;-66
2022/05/03 03:27:22;;;;;;;6.80;4.87;;;5.80;99.90;6.40;96649.00;;;;5068954;28;20203;-67
2022/05/03 03:29:57;;;;;;;8.37;4.57;;;5.80;99.90;6.40;96639.00;;;;5069242;28;20196;-67
2022/05/03 03:32:27;;;;;;;5.33;4.83;;;5.80;99.90;6.10;96641.00;;;;5069124;28;21090;-66
2022/05/03 03:34:59;;;;;;;4.83;4.33;;;5.80;99.90;6.10;96632.00;;;;5069297;28;20245;-67
2022/05/03 03:37:30;;;;;;;5.67;4.67;;;5.80;99.90;6.20;96644.00;;;;5068530;28;20215;-67
2022/05/03 03:40:00;;;;;;;6.73;4.63;;;5.80;99.90;6.10;96632.00;;;;5068540;28;20227;-67
2022/05/03 03:42:30;;;;;;;5.20;4.60;;;5.70;99.90;6.20;96640.00;;;;5067814;28;20235;-67
2022/05/03 03:45:06;;;;;;;6.10;4.57;;;5.70;99.90;6.20;96636.00;;;;5069091;28;20200;-67
2022/05/03 03:47:36;;;;;;;5.00;4.57;;;5.70;99.90;5.80;96633.00;;;;5061271;28;20202;-66
2022/05/03 03:50:06;;;;;;;5.07;4.50;;;5.70;99.90;5.60;96638.00;;;;5068726;28;20196;-67
2022/05/03 03:52:36;;;;;;;3.40;3.10;;;5.60;99.90;5.60;96636.00;;;;5068160;28;20709;-67
2022/05/03 03:55:08;;;;;;;6.67;4.40;;;5.50;99.90;5.80;96638.00;;;;5068934;28;20216;-67
2022/05/03 03:57:38;;;;;;;5.20;4.70;;;5.50;99.90;6.00;96635.00;;;;5058442;28;20278;-67
2022/05/03 04:00:10;;;;;;;6.67;4.87;;;5.50;99.90;6.10;96640.00;;;;5068229;28;20204;-66
2022/05/03 04:02:40;;;;;;;4.33;3.93;;;5.50;99.90;6.10;96650.00;;;;5059440;28;20238;-67
2022/05/03 04:05:15;;;;;;;5.17;4.67;;;5.50;99.90;6.10;96645.00;;;;5065286;28;20195;-67
2022/05/03 04:07:44;;;;;;;5.83;4.90;;;5.60;99.90;6.30;96653.00;;;;5059205;28;21189;-66
2022/05/03 04:10:14;;;;;;;6.70;5.83;;;5.60;99.90;6.10;96643.00;;;;5065387;28;20245;-66
2022/05/03 04:12:43;;;;;;;6.03;5.03;;;5.60;99.90;6.10;96649.00;;;;5061981;28;20212;-67
2022/05/03 04:15:12;;;;;;;5.50;4.53;;;5.60;99.90;5.90;96648.00;;;;5062120;28;20295;-66
2022/05/03 04:17:42;;;;;;;5.83;4.73;;;5.60;99.90;6.20;96654.00;;;;5060405;28;20193;-66
2022/05/03 04:20:13;;;;;;;5.27;4.10;;;5.60;99.90;6.20;96653.00;;;;5059334;28;20234;-66
2022/05/03 04:22:41;;;;;;;4.53;4.20;;;5.70;99.90;5.80;96645.00;;;;5067255;28;20215;-67
2022/05/03 04:25:10;;;;;;;4.87;4.20;;;5.60;99.90;6.00;96651.00;;;;5060801;28;20259;-66
2022/05/03 04:27:40;;;;;;;5.13;4.10;;;5.60;99.90;6.30;96653.00;;;;5063248;28;20253;-67
2022/05/03 04:30:10;;;;;;;5.00;4.50;;;5.60;99.90;6.20;96656.00;;;;5063301;28;20203;-66
2022/05/03 04:32:38;;;;;;;4.63;4.10;;;5.70;99.90;6.30;96661.00;;;;5066692;28;20302;-66
2022/05/03 04:35:08;;;;;;;3.87;3.57;;;5.70;99.90;6.20;96656.00;;;;5059197;28;20275;-66
2022/05/03 04:37:37;;;;;;;7.43;5.23;;;5.70;99.90;6.20;96664.00;;;;5059365;28;20200;-66
2022/05/03 04:40:07;;;;;;;5.43;4.80;;;5.70;99.90;6.40;96670.00;;;;5058980;28;20207;-66
2022/05/03 04:42:35;;;;;;;9.13;4.97;;;5.80;99.90;6.60;96665.00;;;;5053990;28;20235;-67
2022/05/03 04:45:07;;;;;;;7.50;4.43;;;5.90;99.90;6.50;96664.00;;;;5055421;28;20196;-67
2022/05/03 04:47:35;;;;;;;6.50;4.47;;;5.90;99.90;6.40;96662.00;;;;5057010;28;20693;-67
2022/05/03 04:50:06;;;;;;;10.43;4.93;;;6.00;99.90;6.70;96667.00;;;;5056042;28;20200;-67
2022/05/03 04:52:34;;;;;;;5.30;4.80;;;6.00;99.90;6.90;96676.00;;;;5057436;28;20213;-66
2022/05/03 04:55:03;;;;;;;5.10;4.63;;;6.10;99.90;6.90;96678.00;;;;5051385;28;20279;-67
2022/05/03 04:57:32;;;;;;;6.23;4.93;;;5.70;99.90;7.20;96678.00;;;;5058715;28;20204;-67
2022/05/03 05:00:02;;;;;;;5.23;4.73;;;6.30;99.90;7.10;96675.00;;;;5056880;28;20197;-67
2022/05/03 05:02:32;;;;;;;6.93;6.27;;;6.40;99.90;7.10;96670.00;;;;5059357;28;20508;-66
2022/05/03 05:05:01;;;;;;;10.63;7.97;;;6.50;99.90;7.00;96671.00;;;;5061903;28;20220;-67
2022/05/03 05:07:29;;;;;;;8.83;7.50;;;6.50;99.90;7.20;96674.00;;;;5062537;28;20214;-67
2022/05/03 05:12:44;;;;;;;6.03;5.13;;;6.60;99.90;7.10;96662.00;;;;5060169;28;20255;-67
2022/05/03 05:15:12;;;;;;;5.77;4.57;;;6.70;99.90;7.10;96668.00;;;;5049932;28;20199;-66
2022/05/03 05:17:42;;;;;;;6.30;4.27;;;6.70;99.90;7.00;96664.00;;;;5062406;28;20192;-66
2022/05/03 05:20:12;;;;;;;5.40;4.90;;;6.80;99.90;7.40;96672.00;;;;5071588;28;20199;-66
2022/05/03 05:22:42;;;;;;;5.87;5.20;;;6.80;99.90;7.60;96675.00;;;;5072316;28;20231;-66
2022/05/03 05:25:15;;;;;;;6.97;5.00;;;6.90;99.90;7.70;96669.00;;;;5071585;28;20261;-67
2022/05/03 05:27:44;;;;;;;8.90;5.60;;;7.10;99.90;7.80;96667.00;;;;5071793;28;20204;-67
2022/05/03 05:30:13;;;;;;;8.03;5.97;;;7.20;99.90;7.80;96661.00;;;;5072141;28;20192;-67
2022/05/03 05:32:43;;;;;;;6.00;5.40;;;7.20;99.90;7.90;96655.00;;;;5072617;28;20262;-67
2022/05/03 05:35:12;;;;;;;6.17;5.50;;;7.30;99.90;8.00;96658.00;;;;5092011;28;20199;-67
2022/05/03 05:37:42;;;;;;;11.03;6.30;;;7.40;99.90;8.20;96660.00;;;;5072510;28;20369;-68
2022/05/03 05:40:12;;;;;;;8.07;7.20;;;7.50;99.90;8.30;96654.00;;;;5063398;28;20196;-67
2022/05/03 05:42:42;;;;;;;23.40;15.70;;;7.60;99.90;8.60;96662.00;;;;5072153;28;20226;-67
2022/05/03 05:45:11;;;;;;;25.20;15.47;;;7.70;99.90;8.80;96664.00;;;;5063514;28;20271;-67
2022/05/03 05:47:40;;;;;;;24.17;14.87;;;7.90;99.90;9.20;96653.00;;;;5071166;28;20203;-67
2022/05/03 05:50:11;;;;;;;21.53;15.80;;;8.10;99.90;9.30;96659.00;;;;5068864;28;20200;-67
2022/05/03 05:55:26;;;;;;;8.17;7.30;;;8.50;99.90;9.70;96662.00;;;;5069455;28;20219;-67
2022/05/03 05:57:54;;;;;;;7.70;6.90;;;8.60;99.90;9.80;96661.00;;;;5071023;28;20247;-68
2022/05/03 06:00:23;;;;;;;10.40;8.37;;;8.80;99.90;10.00;96658.00;;;;5071047;28;20283;-68
2022/05/03 06:02:52;;;;;;;10.43;7.63;;;9.00;99.90;10.30;96680.00;;;;5071476;28;20235;-68
2022/05/03 06:05:22;;;;;;;6.87;6.20;;;9.10;99.90;10.30;96675.00;;;;5071371;28;20256;-67
2022/05/03 06:07:50;;;;;;;8.27;7.00;;;9.30;99.90;10.60;96666.00;;;;5068856;28;20278;-67
2022/05/03 06:10:19;;;;;;;8.13;6.50;;;9.40;99.90;10.80;96668.00;;;;5060526;28;20196;-67
2022/05/03 06:12:48;;;;;;;9.30;6.73;;;9.60;99.90;11.10;96673.00;;;;5071374;28;20215;-68
2022/05/03 06:15:19;;;;;;;8.87;7.10;;;9.80;99.90;11.30;96673.00;;;;5070985;28;20275;-67
2022/05/03 06:17:47;;;;;;;8.17;6.80;;;9.90;99.90;11.60;96673.00;;;;5071181;28;20227;-67
2022/05/03 06:20:16;;;;;;;9.57;6.77;;;10.20;99.90;11.80;96666.00;;;;5071327;28;20195;-68
2022/05/03 06:22:46;;;;;;;6.73;5.47;;;10.30;99.90;11.80;96668.00;;;;5071726;28;20226;-68
2022/05/03 06:25:14;;;;;;;5.53;4.77;;;10.50;99.90;11.90;96671.00;;;;5070982;28;20203;-67
2022/05/03 06:27:43;;;;;;;9.20;8.27;;;10.60;99.90;12.00;96660.00;;;;5070589;28;20200;-67
2022/05/03 06:30:12;;;;;;;6.00;4.77;;;10.70;99.90;12.10;96654.00;;;;5070309;28;20315;-67
2022/05/03 06:32:43;;;;;;;7.40;5.10;;;10.80;99.90;12.30;96665.00;;;;5071284;28;20227;-67
2022/05/03 06:35:13;;;;;;;5.70;5.10;;;10.90;99.90;12.50;96665.00;;;;5088888;28;20244;-67
2022/05/03 06:37:42;;;;;;;5.07;4.53;;;11.10;99.90;12.40;96663.00;;;;5071537;28;20251;-67
2022/05/03 06:40:12;;;;;;;4.33;3.93;;;11.20;99.90;12.50;96661.00;;;;5070201;28;20192;-68
2022/05/03 06:42:42;;;;;;;5.37;4.87;;;11.30;99.90;12.40;96665.00;;;;5071111;28;20219;-68
2022/05/03 06:45:11;;;;;;;6.93;4.83;;;11.40;99.90;12.50;96664.00;;;;5062616;28;20216;-68
2022/05/03 06:47:44;;;;;;;4.80;4.30;;;11.40;99.90;12.40;96663.00;;;;5070871;28;20304;-67
2022/05/03 06:50:13;;;;;;;4.83;4.20;;;11.50;99.90;12.60;96663.00;;;;5069466;28;20196;-67
2022/05/03 06:52:42;;;;;;;6.83;6.13;;;11.60;99.90;12.80;96663.00;;;;5070720;28;20222;-68
2022/05/03 06:55:12;;;;;;;6.80;5.27;;;11.60;99.90;13.10;96673.00;;;;5070442;28;20210;-68
2022/05/03 06:57:41;;;;;;;6.60;5.23;;;11.80;99.90;13.40;96666.00;;;;5070012;28;20215;-68
2022/05/03 07:00:11;;;;;;;5.33;4.83;;;12.00;99.90;13.60;96673.00;;;;5070199;28;20207;-67
2022/05/03 07:02:39;;;;;;;7.10;5.53;;;12.10;99.90;13.50;96669.00;;;;5070725;28;20357;-68
2022/05/03 07:05:09;;;;;;;8.00;5.40;;;12.30;99.90;13.60;96679.00;;;;5069760;28;20202;-67
2022/05/03 07:07:39;;;;;;;6.83;5.53;;;12.40;99.90;13.70;96675.00;;;;5069589;28;20515;-67
2022/05/03 07:10:09;;;;;;;5.63;5.03;;;12.50;99.90;13.90;96677.00;;;;5055940;28;20196;-68
2022/05/03 07:12:39;;;;;;;4.87;4.33;;;12.60;99.90;14.00;96669.00;;;;5081477;28;20212;-67
2022/05/03 07:15:09;;;;;;;6.27;4.53;;;12.70;99.90;14.00;96674.00;;;;5070002;28;20196;-67
2022/05/03 07:23:11;;;;;;;4.90;4.40;;;13.10;99.90;14.50;96672.00;;;;5069636;28;20227;-66
2022/05/03 07:25:40;;;;;;;7.63;4.93;;;13.20;99.90;14.40;96669.00;;;;5069377;28;20199;-67
2022/05/03 07:28:09;;;;;;;6.07;4.70;;;13.30;99.90;14.60;96671.00;;;;5069516;28;20215;-67
2022/05/03 07:30:38;;;;;;;5.80;4.70;;;13.30;99.90;14.60;96666.00;;;;5070085;28;20203;-67
2022/05/03 07:33:07;;;;;;;5.53;5.00;;;13.40;99.90;14.80;96667.00;;;;5069991;28;20216;-67
2022/05/03 07:35:36;;;;;;;5.53;4.57;;;13.50;99.90;14.60;96676.00;;;;5069658;28;20203;-66
2022/05/03 07:38:05;;;;;;;7.00;4.77;;;13.60;99.90;15.20;96668.00;;;;5069449;28;20192;-67
2022/05/03 07:40:33;;;;;;;6.17;5.07;;;13.70;99.90;15.20;96667.00;;;;5068906;28;20279;-66
2022/05/03 07:43:03;;;;;;;6.10;4.63;;;13.80;99.90;15.20;96671.00;;;;5069915;28;20295;-67
2022/05/03 07:45:34;;;;;;;5.17;4.67;;;13.90;99.90;15.30;96677.00;;;;5069735;28;20223;-65
2022/05/03 07:48:04;;;;;;;10.13;5.70;;;14.10;99.90;15.30;96670.00;;;;5069216;28;20216;-67
2022/05/03 07:50:33;;;;;;;7.10;5.47;;;14.10;99.90;15.60;96675.00;;;;5066266;28;20202;-66
2022/05/03 07:53:02;;;;;;;5.90;5.30;;;14.30;99.90;15.70;96678.00;;;;5064732;28;20212;-66
2022/05/03 07:55:30;;;;;;;9.57;5.57;;;14.30;99.90;15.90;96685.00;;;;5060674;28;20195;-67
2022/05/03 07:57:59;;;;;;;6.13;5.33;;;14.50;99.90;15.80;96675.00;;;;5058951;28;20199;-66
2022/05/03 08:00:28;;;;;;;8.27;5.83;;;14.60;99.90;15.90;96678.00;;;;5061021;28;20198;-66
2022/05/03 08:02:58;;;;;;;4.67;4.27;;;14.70;99.90;15.90;96679.00;;;;5104555;22;20230;-69
2022/05/03 08:05:27;;;;;;;5.57;5.07;;;14.80;99.90;16.40;96679.00;;;;5077804;28;20195;-71
2022/05/03 08:07:56;;;;;;;6.43;5.37;;;14.90;99.90;16.40;96683.00;;;;5089032;28;20226;-69
2022/05/03 08:10:24;;;;;;;7.67;5.40;;;15.00;99.90;16.60;96685.00;;;;5081429;28;20249;-70
2022/05/03 08:12:53;;;;;;;5.93;5.40;;;15.10;99.90;16.40;96683.00;;;;5077238;28;20211;-71
2022/05/03 08:15:23;;;;;;;7.27;5.67;;;15.20;99.90;16.50;96682.00;;;;5072282;28;20223;-70
2022/05/03 08:17:51;;;;;;;8.77;6.47;;;15.20;99.90;16.30;96678.00;;;;5049180;28;20579;-70
2022/05/03 08:20:21;;;;;;;7.00;5.67;;;15.30;99.90;16.60;96678.00;;;;5087121;28;20208;-70
2022/05/03 08:22:50;;;;;;;7.77;5.00;;;15.30;99.90;17.00;96677.00;;;;5092429;28;20254;-70
2022/05/03 08:25:19;;;;;;;5.80;5.03;;;15.40;99.90;16.70;96679.00;;;;5085315;28;20198;-72
2022/05/03 08:27:48;;;;;;;4.70;4.30;;;15.50;99.90;16.90;96682.00;;;;5089041;28;20364;-72
2022/05/03 08:30:17;;;;;;;6.47;5.00;;;15.60;99.90;17.20;96684.00;;;;5089656;28;20203;-70
2022/05/03 08:32:45;;;;;;;5.30;4.83;;;15.80;99.90;17.30;96672.00;;;;5097763;28;20250;-71
2022/05/03 08:35:14;;;;;;;5.73;5.13;;;15.80;99.90;17.30;96681.00;;;;5076334;28;20202;-72
2022/05/03 08:43:16;;;;;;;7.03;5.33;;;16.30;99.90;17.90;96676.00;;;;5090302;28;20302;-71
2022/05/03 08:45:50;;;;;;;5.50;5.00;;;16.40;99.90;18.00;96679.00;;;;5089487;28;20237;-70
2022/05/03 08:48:21;;;;;;;5.27;4.73;;;16.60;99.90;17.80;96677.00;;;;5087720;28;20219;-73
2022/05/03 08:50:50;;;;;;;6.47;5.13;;;16.60;99.90;18.30;96677.00;;;;5084517;28;20282;-74
2022/05/03 08:53:21;;;;;;;7.47;5.40;;;16.80;99.90;18.10;96679.00;;;;5080070;28;20211;-70
2022/05/03 08:55:51;;;;;;;5.70;5.20;;;16.80;99.90;18.20;96678.00;;;;5092258;28;20296;-71
2022/05/03 08:58:20;;;;;;;5.70;5.00;;;16.90;99.90;18.40;96670.00;;;;5093367;28;20191;-70
2022/05/03 09:00:49;;;;;;;4.93;4.30;;;17.10;99.90;18.70;96674.00;;;;5092993;28;20200;-71
2022/05/03 09:03:18;;;;;;;6.30;4.23;;;17.20;99.90;18.30;96668.00;;;;5092929;28;20223;-70
2022/05/03 09:05:48;;;;;;;5.67;4.93;;;17.20;99.90;18.20;96672.00;;;;5073419;28;20242;-69
2022/05/03 09:08:24;;;;;;;5.73;4.23;;;17.10;99.90;19.00;96672.00;;;;5072169;28;20622;-70
2022/05/03 09:10:53;;;;;;;8.37;5.13;;;17.30;99.90;19.20;96672.00;;;;5092446;28;20218;-71
2022/05/03 09:13:42;;;;;;;7.60;4.23;;;17.50;99.90;19.30;96667.00;;;;5078037;28;20204;-70
2022/05/03 09:16:13;;;;;;;4.43;4.10;;;17.70;99.90;19.40;96672.00;;;;5072378;28;20245;-70
2022/05/03 09:18:42;;;;;;;5.63;5.03;;;17.80;99.90;19.40;96667.00;;;;5074048;28;20196;-71
2022/05/03 09:24:14;;;;;;;4.77;4.03;;;18.20;99.90;20.40;96668.00;;;;5064241;28;20237;-71
2022/05/03 09:26:43;;;;;;;7.70;4.00;;;18.40;99.90;20.40;96670.00;;;;5071961;28;20246;-71
2022/05/03 09:29:14;;;;;;;4.40;4.00;;;18.60;99.90;20.70;96662.00;;;;5071904;28;20222;-70
2022/05/03 09:31:46;;;;;;;4.47;3.83;;;18.80;99.90;20.40;96658.00;;;;5073711;28;20218;-71
2022/05/03 09:34:23;;;;;;;4.40;3.97;;;18.90;99.90;20.90;96658.00;;;;5084220;28;20204;-70
2022/05/03 09:36:54;;;;;;;4.57;4.03;;;19.10;99.90;20.80;96650.00;;;;5080930;28;20195;-71
2022/05/03 09:39:37;;;;;;;8.10;4.37;;;19.30;99.90;21.00;96655.00;;;;5091552;28;20199;-73
2022/05/03 09:42:09;;;;;;;6.70;4.20;;;19.40;99.90;21.10;96658.00;;;;5091187;28;20211;-72
2022/05/03 09:44:52;;;;;;;4.10;3.63;;;19.60;99.90;21.30;96656.00;;;;5072183;28;20200;-73
2022/05/03 09:47:22;;;;;;;7.03;5.87;;;19.70;99.90;21.50;96654.00;;;;5072483;28;20202;-73
2022/05/03 09:49:51;;;;;;;3.90;3.57;;;19.80;99.90;21.90;96647.00;;;;5083257;28;20226;-73
2022/05/03 09:52:27;;;;;;;4.10;3.70;;;20.00;99.90;22.00;96654.00;;;;5085686;28;20223;-73
2022/05/03 09:55:03;;;;;;;4.30;3.90;;;20.10;99.90;21.90;96647.00;;;;5081686;28;20241;-72
2022/05/03 09:57:34;;;;;;;3.87;3.57;;;20.30;99.90;22.00;96647.00;;;;5083075;28;20192;-73
2022/05/03 10:00:08;;;;;;;3.50;3.20;;;20.30;99.90;22.10;96639.00;;;;5089397;28;20195;-71
2022/05/03 10:02:40;;;;;;;4.13;3.73;;;20.40;99.90;22.60;96635.00;;;;5086279;28;20307;-71
2022/05/03 10:05:15;;;;;;;3.70;3.33;;;20.70;99.90;22.80;96642.00;;;;5064391;28;20203;-71
2022/05/03 10:07:44;;;;;;;3.53;2.63;;;20.80;97.40;23.00;96634.00;;;;5071125;28;20271;-71
2022/05/03 10:10:16;;;;;;;3.63;3.30;;;21.00;96.20;23.20;96644.00;;;;5090151;28;20299;-70
2022/05/03 10:12:46;;;;;;;3.40;2.83;;;21.20;94.60;23.50;96623.00;;;;5086200;28;20215;-71
2022/05/03 10:20:35;;;;;;;3.17;2.60;;;21.40;94.20;23.70;96625.00;;;;5078360;28;20214;-71
2022/05/03 10:21:04;;;;;;;6.20;2.80;;;21.70;84.50;23.70;96625.00;;;;5084314;28;20199;-71
2022/05/03 10:23:34;;;;;;;3.60;2.43;;;21.80;76.50;24.10;96614.00;;;;5091243;28;20242;-71
2022/05/03 10:26:06;;;;;;;2.53;2.20;;;22.00;77.60;24.00;96611.00;;;;5091299;28;20270;-71
2022/05/03 10:29:05;;;;;;;3.23;2.33;;;22.10;75.20;24.60;96611.00;;;;5090519;28;20215;-71
2022/05/03 10:31:54;;;;;;;4.97;3.03;;;22.30;75.90;23.50;96603.00;;;;5085640;28;20207;-69
2022/05/03 10:34:42;;;;;;;5.93;2.37;;;22.30;70.80;24.40;96600.00;;;;5072970;28;20202;-73
2022/05/03 10:37:12;;;;;;;3.17;2.03;;;22.40;70.20;24.80;96604.00;;;;5071658;28;20206;-73
2022/05/03 10:39:54;;;;;;;7.33;2.50;;;22.60;69.50;24.90;96588.00;;;;5091080;28;20209;-73
2022/05/03 10:42:27;;;;;;;5.50;2.23;;;22.80;70.30;25.20;96594.00;;;;5087015;28;20224;-73
2022/05/03 10:45:07;;;;;;;4.30;2.80;;;23.00;69.50;25.10;96589.00;;;;5070941;28;20203;-73
2022/05/03 10:47:48;;;;;;;5.20;2.90;;;23.10;67.20;25.50;96584.00;;;;5077548;28;20205;-72
2022/05/03 10:50:26;;;;;;;6.53;3.10;;;23.30;66.60;25.40;96585.00;;;;5090332;28;20219;-73
2022/05/03 10:53:27;;;;;;;4.53;2.47;;;23.40;63.90;25.80;96584.00;;;;5090980;28;20211;-73
2022/05/03 10:56:19;;;;;;;2.40;1.83;;;23.60;65.60;25.70;96579.00;;;;5085205;28;20221;-73
2022/05/03 10:59:10;;;;;;;3.83;1.93;;;23.70;62.50;26.20;96573.00;;;;5082738;28;20195;-73
2022/05/03 11:02:07;;;;;;;9.03;2.30;;;23.90;62.90;23.90;96567.00;;;;5087108;28;20211;-69
2022/05/03 11:04:36;;;;;;;7.27;2.53;;;23.90;59.10;23.70;96571.00;;;;5087510;28;20207;-71
2022/05/03 11:07:05;;;;;;;2.70;2.27;;;23.40;58.40;25.10;96560.00;;;;5083856;28;20231;-70
2022/05/03 11:09:34;;;;;;;2.10;1.87;;;23.40;59.80;25.80;96563.00;;;;5090404;28;20211;-70
2022/05/03 11:12:07;;;;;;;3.70;2.23;;;23.60;61.00;25.70;96569.00;;;;5089989;28;20246;-70
2022/05/03 11:14:55;;;;;;;3.87;2.10;;;23.80;59.60;25.40;96558.00;;;;5085674;28;20283;-72
2022/05/03 11:17:25;;;;;;;4.07;2.20;;;23.80;58.00;24.30;96557.00;;;;5090015;28;20218;-69
2022/05/03 11:20:02;;;;;;;2.37;1.80;;;23.70;57.20;25.10;96560.00;;;;5083883;28;20196;-70
2022/05/03 11:22:35;;;;;;;3.03;2.20;;;23.70;58.60;25.80;96537.00;;;;5085710;28;20261;-70
2022/05/03 11:25:14;;;;;;;3.97;2.47;;;23.90;58.70;26.60;96556.00;;;;5090170;28;20193;-70
2022/05/03 11:27:44;;;;;;;3.07;1.93;;;24.20;60.10;26.70;96547.00;;;;5077318;28;20210;-71
2022/05/03 11:30:17;;;;;;;2.33;2.13;;;24.50;58.50;27.20;96554.00;;;;5072483;28;20216;-70
2022/05/03 11:32:45;;;;;;;2.73;2.37;;;24.90;58.40;27.90;96552.00;;;;5083117;28;20207;-71
2022/05/03 11:35:17;;;;;;;3.57;2.87;;;25.20;59.40;28.00;96544.00;;;;5089469;28;20201;-71
2022/05/03 11:37:50;;;;;;;6.10;2.60;;;25.60;57.70;28.30;96542.00;;;;5079343;28;20200;-71
2022/05/03 11:40:22;;;;;;;4.67;2.00;;;25.90;57.70;28.50;96541.00;;;;5082948;28;20201;-71
2022/05/03 11:42:51;;;;;;;2.87;2.07;;;26.20;56.30;28.60;96540.00;;;;5082016;28;20297;-71
2022/05/03 11:45:21;;;;;;;2.63;2.07;;;26.40;57.40;28.10;96533.00;;;;5084737;28;20206;-71
2022/05/03 11:47:52;;;;;;;3.67;1.93;;;26.40;55.40;27.90;96544.00;;;;5069285;28;20218;-71
2022/05/03 11:56:07;;;;;;;2.17;1.97;;;26.30;53.50;28.20;96526.00;;;;5080087;28;20200;-73
2022/05/03 11:58:39;;;;;;;3.67;1.87;;;26.20;52.80;25.40;96527.00;;;;5089356;28;20220;-70
2022/05/03 12:01:16;;;;;;;2.63;1.43;;;25.90;50.50;28.20;96529.00;;;;5087623;28;20222;-71
2022/05/03 12:03:50;;;;;;;2.53;1.90;;;26.00;52.20;28.10;96526.00;;;;5089773;28;20199;-71
2022/05/03 12:06:21;;;;;;;4.00;1.30;;;26.20;52.30;28.60;96523.00;;;;5081990;28;20199;-71
2022/05/03 12:08:52;;;;;;;1.50;1.40;;;26.40;51.40;28.30;96514.00;;;;5081573;28;20280;-72
2022/05/03 12:11:24;;;;;;;2.63;1.70;;;26.60;48.80;29.10;96514.00;;;;5095339;28;20203;-71